Airfield :
LOGIN :

Register | Disclaimer

   EN    FR    IT 

 










Legend :    VFR   Marginal VFR   IFR   Intensive IFR   Very Intensive IFR
Visi :
Ceiling :
>= 8 km
>= 3000ft
5 to 8 km
1000 to 3000 ft
1500m to 5 km
500 to 1000 ft
800 to 1500m
200 to 500 ft
< 800m
< 200 ft
Symbols :   Thunderstorms  Fog  Heavy snow  Heavy precipitations  Wind > 20 kt
SIGMETs :     Misc.  Thunderstorms  Icing  Turbulence  Mountain Waves  Volcanic Ashes






- Airport Elevation : 157 ft
- IATA code : LIL


LFQQ - Lille Lesquin

CURRENT METAR :
  • 091030Z AUTO 21009KT 9999 OVC028 06/04 Q1004 TEMPO BKN013

EXPIRED METARs :
  • 091000Z AUTO 21008KT 9999 SCT022 OVC028 05/04 Q1004 TEMPO BKN013
  • 090930Z AUTO 20009KT 9999 BKN027 OVC042 05/04 Q1003 TEMPO BKN013
  • 090900Z AUTO 19009KT 9999 BKN030 BKN042 BKN160 04/03 Q1003 TEMPO BKN013
  • 090830Z AUTO 19008KT 9999 SCT027 BKN038 OVC044 04/03 Q1003 TEMPO BKN013
  • 090800Z AUTO 20009KT 9999 FEW007 BKN030 BKN044 04/03 Q1003 TEMPO 4000 SHRA BKN008 BKN020TCU

TAF TAF LFQQ
Valid from the 09 at 06:00 until the 10 at 12:00 UTC


090500Z 0906/1012 20010KT 9999 BKN020
TEMPO 0906/0909 4000 SHRA BKN008 BKN020TCU
TEMPO 0909/0916 BKN013
BECMG 0919/0921 18015G25KT OVC008
TEMPO 0923/1006 2000 DZRA OVC004
FM100600 30020G33KT 9999 BKN015
TEMPO 1006/1012 3000 RA OVC008
ATIS : +33 3 20 16 19 54



MET'MAP, your aeronautical weather chart ! - Copyright ORBIFLY December 2007 - Disclaimer

ORBIFLY MET'MAP TEAM :

Programming & Development : Alexandra Zaïnal
Concept & original design : Baudouin d'Aumeries
Assistance for programming : Marc-Olivier Méhu
Technical & hardware support : Manuel Goepfert

Contact : metmap@orbifly.com




SOURCES & CREDITS :

   NOAA